Time;durP1;ratioP1;P1;durP2;ratioP2;P2;SDS_P1;SDS_P2;PMS_P1;PMS_P2;Temp;Humidity;BMP_temperature;BMP_pressure;BME280_temperature;BME280_humidity;BME280_pressure;Samples;Min_cycle;Max_cycle;Signal;HPM_P1;HPM_P2
2021/07/03 00:00:04;;;;;;;16.48;9.77;;;16.80;99.90;;;;;;2100824;28;20028;-66
2021/07/03 00:01:05;;;;;;;11.65;9.00;;;16.80;99.90;;;;;;2102134;28;20020;-66
2021/07/03 00:02:05;;;;;;;15.18;9.57;;;16.80;99.90;;;;;;2099133;28;20053;-66
2021/07/03 00:03:07;;;;;;;14.90;9.45;;;16.80;99.90;;;;;;2103834;28;20017;-66
2021/07/03 00:04:07;;;;;;;14.95;9.32;;;16.80;99.90;;;;;;2103037;28;20027;-66
2021/07/03 00:05:09;;;;;;;15.95;9.82;;;16.80;99.90;;;;;;2103796;28;20097;-66
2021/07/03 00:06:10;;;;;;;15.73;9.32;;;16.80;99.90;;;;;;2099660;28;20040;-66
2021/07/03 00:07:11;;;;;;;15.18;8.80;;;16.80;99.90;;;;;;2100171;28;20025;-66
2021/07/03 00:08:11;;;;;;;14.85;9.00;;;16.90;99.90;;;;;;2102702;28;20052;-66
2021/07/03 00:09:13;;;;;;;16.17;10.00;;;16.90;99.90;;;;;;2103188;28;20100;-66
2021/07/03 00:10:14;;;;;;;15.02;9.98;;;16.90;99.90;;;;;;2103765;28;20016;-66
2021/07/03 00:11:14;;;;;;;11.85;9.27;;;16.90;99.90;;;;;;2102435;28;20515;-66
2021/07/03 00:12:15;;;;;;;13.50;9.50;;;17.00;99.90;;;;;;2102785;28;20056;-66
2021/07/03 00:13:16;;;;;;;19.23;11.13;;;17.00;99.90;;;;;;2107788;28;20026;-66
2021/07/03 00:14:17;;;;;;;16.80;9.25;;;17.00;99.90;;;;;;2094152;28;20709;-66
2021/07/03 00:15:21;;;;;;;17.15;9.27;;;17.00;99.90;;;;;;2095383;28;20017;-66
2021/07/03 00:16:22;;;;;;;16.13;10.05;;;17.10;99.90;;;;;;2092766;28;20562;-66
2021/07/03 00:17:22;;;;;;;15.27;9.85;;;17.10;99.90;;;;;;2097010;28;20020;-66
2021/07/03 00:18:24;;;;;;;16.85;10.75;;;17.10;99.90;;;;;;2097154;28;20078;-66
2021/07/03 00:19:24;;;;;;;17.30;9.95;;;17.10;99.90;;;;;;2097501;28;20017;-66
2021/07/03 00:20:26;;;;;;;13.27;9.52;;;17.10;99.90;;;;;;2096221;28;20086;-65
2021/07/03 00:21:27;;;;;;;14.88;9.60;;;17.10;99.90;;;;;;2091595;28;20025;-65
2021/07/03 00:22:27;;;;;;;18.17;10.20;;;17.10;99.90;;;;;;2097127;28;20024;-66
2021/07/03 00:23:28;;;;;;;12.48;9.35;;;17.10;99.90;;;;;;2089743;28;20020;-65
2021/07/03 00:24:29;;;;;;;15.23;9.98;;;17.10;99.90;;;;;;2096534;28;20016;-66
2021/07/03 00:25:30;;;;;;;12.73;9.27;;;17.10;99.90;;;;;;2105422;28;20024;-66
2021/07/03 00:26:30;;;;;;;15.40;9.80;;;17.10;99.90;;;;;;2105395;28;20107;-66
2021/07/03 00:27:31;;;;;;;14.85;9.85;;;17.10;99.90;;;;;;2105872;28;20020;-66
2021/07/03 00:28:32;;;;;;;16.20;10.02;;;17.00;99.90;;;;;;2105024;28;20028;-66
2021/07/03 00:29:32;;;;;;;13.57;10.50;;;17.00;99.90;;;;;;2096924;28;20516;-66
2021/07/03 00:30:33;;;;;;;13.93;10.32;;;17.00;99.90;;;;;;2095856;28;20075;-66
2021/07/03 00:31:34;;;;;;;19.65;10.95;;;17.10;99.90;;;;;;2096788;28;20074;-66
2021/07/03 00:32:35;;;;;;;14.55;9.98;;;17.00;99.90;;;;;;2098059;28;20020;-66
2021/07/03 00:33:35;;;;;;;17.73;10.20;;;17.00;99.90;;;;;;2097549;28;20028;-66
2021/07/03 00:34:36;;;;;;;15.07;10.10;;;17.00;99.90;;;;;;2097895;28;20048;-66
2021/07/03 00:35:37;;;;;;;14.27;9.88;;;17.00;99.90;;;;;;2097425;28;20572;-66
2021/07/03 00:36:37;;;;;;;14.57;10.48;;;17.00;99.90;;;;;;2094512;28;20029;-66
2021/07/03 00:37:38;;;;;;;17.80;10.30;;;17.00;99.90;;;;;;2097546;28;20041;-66
2021/07/03 00:38:40;;;;;;;15.30;10.27;;;17.00;99.90;;;;;;2096984;28;20105;-66
2021/07/03 00:39:40;;;;;;;18.02;11.02;;;17.10;99.90;;;;;;2097965;28;20523;-66
2021/07/03 00:40:41;;;;;;;17.92;10.40;;;17.00;99.90;;;;;;2094407;28;20046;-66
2021/07/03 00:41:42;;;;;;;13.82;10.07;;;17.00;99.90;;;;;;2090845;28;20028;-66
2021/07/03 00:42:43;;;;;;;13.48;10.25;;;17.00;99.90;;;;;;2097709;28;20024;-66
2021/07/03 00:43:43;;;;;;;16.05;10.75;;;17.00;99.90;;;;;;2097591;28;20027;-66
2021/07/03 00:44:45;;;;;;;13.07;10.43;;;17.00;99.90;;;;;;2093925;28;20543;-66
2021/07/03 00:45:45;;;;;;;16.45;9.90;;;17.00;99.90;;;;;;2094625;28;20074;-66
2021/07/03 00:46:46;;;;;;;16.00;10.05;;;17.00;99.90;;;;;;2097144;28;20423;-66
2021/07/03 00:47:47;;;;;;;14.68;9.65;;;17.00;99.90;;;;;;2096603;28;20067;-66
2021/07/03 00:48:47;;;;;;;16.65;10.48;;;17.00;99.90;;;;;;2093214;28;20098;-66
2021/07/03 00:49:48;;;;;;;14.20;10.18;;;17.00;99.90;;;;;;2090325;28;20095;-66
2021/07/03 00:50:49;;;;;;;14.98;10.85;;;17.00;99.90;;;;;;2096598;28;20027;-66
2021/07/03 00:51:49;;;;;;;18.50;9.70;;;17.00;99.90;;;;;;2097478;28;20020;-66
2021/07/03 00:52:50;;;;;;;18.27;10.85;;;17.00;99.90;;;;;;2097220;28;20691;-66
2021/07/03 00:53:51;;;;;;;15.02;9.55;;;17.00;99.90;;;;;;2097606;28;20016;-66
2021/07/03 00:54:53;;;;;;;13.88;10.60;;;16.90;99.90;;;;;;2094872;28;20432;-66
2021/07/03 00:55:54;;;;;;;16.30;10.00;;;17.00;99.90;;;;;;2094009;28;20020;-66
2021/07/03 00:57:02;;;;;;;16.50;9.40;;;16.90;99.90;;;;;;2097026;28;20141;-66
2021/07/03 00:58:03;;;;;;;15.18;9.20;;;16.90;99.90;;;;;;2097041;28;20445;-66
2021/07/03 00:59:04;;;;;;;15.02;9.50;;;16.90;99.90;;;;;;2097513;28;20099;-66
2021/07/03 01:00:06;;;;;;;14.73;8.85;;;16.90;99.90;;;;;;2098052;28;20663;-66
2021/07/03 01:01:06;;;;;;;;;;;16.90;99.90;;;;;;2097698;28;20476;-66
2021/07/03 01:02:12;;;;;;;21.05;9.43;;;16.90;99.90;;;;;;2089385;28;19923;-66
2021/07/03 01:03:13;;;;;;;12.70;8.98;;;16.90;99.90;;;;;;2089723;28;20692;-66
2021/07/03 01:04:13;;;;;;;10.85;8.73;;;16.90;99.90;;;;;;2092295;28;20025;-66
2021/07/03 01:05:15;;;;;;;14.95;9.38;;;16.90;99.90;;;;;;2098115;28;20661;-66
2021/07/03 01:06:16;;;;;;;15.45;9.68;;;16.90;99.90;;;;;;2091452;28;20028;-66
2021/07/03 01:07:17;;;;;;;13.00;9.55;;;16.90;99.90;;;;;;2090128;28;20056;-66
2021/07/03 01:08:18;;;;;;;18.05;9.98;;;16.90;99.90;;;;;;2089294;28;20100;-66
2021/07/03 01:09:19;;;;;;;14.40;9.85;;;16.90;99.90;;;;;;2091805;28;20020;-66
2021/07/03 01:10:23;;;;;;;14.77;9.95;;;16.90;99.90;;;;;;2092840;28;20029;-66
2021/07/03 01:11:25;;;;;;;17.08;9.70;;;16.90;99.90;;;;;;2100706;28;20020;-66
2021/07/03 01:12:26;;;;;;;12.73;9.27;;;16.90;99.90;;;;;;2090239;28;20021;-66
2021/07/03 01:13:29;;;;;;;15.52;10.23;;;16.90;99.90;;;;;;2097788;28;20028;-66
2021/07/03 01:14:29;;;;;;;14.93;9.23;;;16.80;99.90;;;;;;2093314;28;20066;-66
2021/07/03 01:15:30;;;;;;;15.82;9.90;;;16.80;99.90;;;;;;2093618;28;20024;-66
2021/07/03 01:16:31;;;;;;;15.25;10.30;;;16.80;99.90;;;;;;2097518;28;20480;-66
2021/07/03 01:17:32;;;;;;;12.82;9.77;;;16.80;99.90;;;;;;2097320;28;20024;-66
2021/07/03 01:18:32;;;;;;;15.80;9.60;;;16.80;99.90;;;;;;2103403;28;20032;-66
2021/07/03 01:19:33;;;;;;;13.43;9.60;;;16.80;99.90;;;;;;2097120;28;20027;-66
2021/07/03 01:20:34;;;;;;;12.20;9.45;;;16.80;99.90;;;;;;2097632;28;20100;-66
2021/07/03 01:21:35;;;;;;;17.55;9.55;;;16.80;99.90;;;;;;2097254;28;20090;-66
2021/07/03 01:22:36;;;;;;;14.02;10.35;;;16.80;99.90;;;;;;2097947;28;20032;-66
2021/07/03 01:23:37;;;;;;;16.77;10.15;;;16.80;99.90;;;;;;2097049;28;20031;-66
2021/07/03 01:24:39;;;;;;;15.52;10.05;;;16.80;99.90;;;;;;2096377;28;20428;-66
2021/07/03 01:25:39;;;;;;;13.90;9.50;;;16.80;99.90;;;;;;2091993;28;20137;-66
2021/07/03 01:26:46;;;;;;;15.63;9.55;;;16.80;99.90;;;;;;2092587;28;20033;-66
2021/07/03 01:28:04;;;;;;;13.25;9.00;;;16.80;99.90;;;;;;2092926;28;20100;-66
2021/07/03 01:29:05;;;;;;;14.93;9.65;;;16.80;99.90;;;;;;2089442;28;20031;-66
2021/07/03 01:30:08;;;;;;;11.98;9.73;;;16.80;99.90;;;;;;2092774;28;20103;-66
2021/07/03 01:31:10;;;;;;;15.63;9.88;;;16.80;99.90;;;;;;2097085;28;20037;-67
2021/07/03 01:32:11;;;;;;;14.77;9.30;;;16.80;99.90;;;;;;2096753;28;20618;-65
2021/07/03 01:33:11;;;;;;;14.52;9.88;;;16.80;99.90;;;;;;2097366;28;20032;-65
2021/07/03 01:34:14;;;;;;;14.52;9.55;;;16.80;99.90;;;;;;2096884;28;20028;-66
2021/07/03 01:35:15;;;;;;;15.25;9.60;;;16.70;99.90;;;;;;2092961;28;20142;-65
2021/07/03 01:36:16;;;;;;;14.98;9.68;;;16.70;99.90;;;;;;2090942;28;20028;-66
2021/07/03 01:37:16;;;;;;;19.70;9.40;;;16.70;99.90;;;;;;2097168;28;20021;-67
2021/07/03 01:38:22;;;;;;;16.98;9.57;;;16.70;99.90;;;;;;2097010;28;20050;-65
2021/07/03 01:39:24;;;;;;;13.98;10.05;;;16.70;99.90;;;;;;2096982;28;20115;-66
2021/07/03 01:40:25;;;;;;;14.23;9.73;;;16.70;99.90;;;;;;2088373;28;20444;-66
2021/07/03 01:41:26;;;;;;;14.85;10.23;;;16.70;99.90;;;;;;2096836;28;20075;-66
2021/07/03 01:42:27;;;;;;;12.68;9.07;;;16.60;99.90;;;;;;2091026;28;20102;-66
2021/07/03 01:43:29;;;;;;;11.15;9.15;;;16.60;99.90;;;;;;2092567;28;20369;-66
2021/07/03 01:44:29;;;;;;;15.85;9.45;;;16.60;99.90;;;;;;2097422;28;20077;-66
2021/07/03 01:45:30;;;;;;;12.90;8.90;;;16.50;99.90;;;;;;2095440;28;20430;-66
2021/07/03 01:46:31;;;;;;;17.38;9.30;;;16.50;99.90;;;;;;2096252;28;20017;-66
2021/07/03 01:47:32;;;;;;;16.83;9.20;;;16.50;99.90;;;;;;2095880;28;20023;-66
2021/07/03 01:48:33;;;;;;;15.10;8.90;;;16.50;99.90;;;;;;2090727;28;20099;-66
2021/07/03 01:49:40;;;;;;;16.55;9.70;;;16.50;99.90;;;;;;2097009;28;20020;-66
2021/07/03 01:50:40;;;;;;;11.77;9.15;;;16.50;99.90;;;;;;2096706;28;20016;-66
2021/07/03 01:51:41;;;;;;;12.38;8.98;;;16.50;99.90;;;;;;2097647;28;20028;-66
2021/07/03 01:52:42;;;;;;;16.33;9.65;;;16.50;99.90;;;;;;2096871;28;20028;-66
2021/07/03 01:53:43;;;;;;;14.48;8.82;;;16.50;99.90;;;;;;2090772;28;20029;-66
2021/07/03 01:54:44;;;;;;;16.30;9.10;;;16.50;99.90;;;;;;2096722;28;20109;-66
2021/07/03 01:55:44;;;;;;;14.10;8.85;;;16.50;99.90;;;;;;2093151;28;20024;-66
2021/07/03 01:56:57;;;;;;;13.65;8.55;;;16.50;99.90;;;;;;2094762;28;20039;-66
2021/07/03 01:57:57;;;;;;;13.73;8.63;;;16.50;99.90;;;;;;2093279;28;20028;-66
2021/07/03 01:58:58;;;;;;;11.15;8.07;;;16.60;99.90;;;;;;2091842;28;20035;-66
2021/07/03 01:59:59;;;;;;;11.48;8.30;;;16.60;99.90;;;;;;2097419;28;20099;-66
2021/07/03 02:01:00;;;;;;;12.55;9.13;;;16.60;99.90;;;;;;2098777;28;20028;-66
2021/07/03 02:02:02;;;;;;;14.20;8.40;;;16.60;99.90;;;;;;2096722;28;20696;-66
2021/07/03 02:03:03;;;;;;;13.65;8.25;;;16.60;99.90;;;;;;2096488;28;20021;-67
2021/07/03 02:04:04;;;;;;;12.38;8.23;;;16.60;99.90;;;;;;2094560;28;20029;-66
2021/07/03 02:05:07;;;;;;;13.23;8.02;;;16.60;99.90;;;;;;2097271;28;20120;-66
2021/07/03 02:06:08;;;;;;;13.48;8.93;;;16.60;99.90;;;;;;2096903;28;20016;-66
2021/07/03 02:07:09;;;;;;;13.40;8.25;;;16.60;99.90;;;;;;2096410;28;20025;-66
2021/07/03 02:08:10;;;;;;;14.90;8.75;;;16.70;99.90;;;;;;2088461;28;20060;-66
2021/07/03 02:09:11;;;;;;;13.00;8.43;;;16.70;99.90;;;;;;2096108;28;20107;-66
2021/07/03 02:10:12;;;;;;;13.93;8.55;;;16.60;99.90;;;;;;2096627;28;20024;-66
2021/07/03 02:11:13;;;;;;;11.10;8.10;;;16.60;99.90;;;;;;2095980;28;20016;-66
2021/07/03 02:12:13;;;;;;;10.48;8.70;;;16.60;99.90;;;;;;2096470;28;20385;-66
2021/07/03 02:13:14;;;;;;;12.88;8.63;;;16.60;99.90;;;;;;2094557;28;20036;-66
2021/07/03 02:14:16;;;;;;;11.00;7.93;;;16.60;99.90;;;;;;2093997;28;20031;-66
2021/07/03 02:15:16;;;;;;;10.90;7.90;;;16.60;99.90;;;;;;2096695;28;20115;-66
2021/07/03 02:16:17;;;;;;;14.55;8.32;;;16.60;99.90;;;;;;2102351;28;20024;-66
2021/07/03 02:17:18;;;;;;;13.25;7.82;;;16.60;99.90;;;;;;2097219;28;20020;-66
2021/07/03 02:18:19;;;;;;;13.63;8.18;;;16.60;99.90;;;;;;2097075;28;20091;-66
2021/07/03 02:19:20;;;;;;;13.18;8.90;;;16.60;99.90;;;;;;2097179;28;20020;-66
2021/07/03 02:20:21;;;;;;;14.80;8.25;;;16.60;99.90;;;;;;2096963;28;20027;-66
2021/07/03 02:21:21;;;;;;;11.57;8.82;;;16.60;99.90;;;;;;2090307;28;20025;-66
2021/07/03 02:22:22;;;;;;;10.57;7.70;;;16.60;99.90;;;;;;2097101;28;20032;-66
2021/07/03 02:23:23;;;;;;;14.35;8.20;;;16.60;99.90;;;;;;2095617;28;20519;-66
2021/07/03 02:24:23;;;;;;;15.43;8.90;;;16.60;99.90;;;;;;2094459;28;20031;-66
2021/07/03 02:25:25;;;;;;;10.80;8.70;;;16.60;99.90;;;;;;2095106;28;20017;-66
2021/07/03 02:26:26;;;;;;;14.30;8.52;;;16.60;99.90;;;;;;2095983;28;20029;-66
2021/07/03 02:27:27;;;;;;;19.80;9.85;;;16.70;99.90;;;;;;2096834;28;20105;-66
2021/07/03 02:28:28;;;;;;;13.35;8.75;;;16.70;99.90;;;;;;2096825;28;20025;-66
2021/07/03 02:29:28;;;;;;;14.82;9.48;;;16.70;99.90;;;;;;2097092;28;20104;-66
2021/07/03 02:30:30;;;;;;;15.30;8.93;;;16.60;99.90;;;;;;2096947;28;20425;-66
2021/07/03 02:31:31;;;;;;;;;;;16.60;99.90;;;;;;2096861;28;20024;-66
2021/07/03 02:32:31;;;;;;;14.15;8.93;;;16.60;99.90;;;;;;2096535;28;19908;-66
2021/07/03 02:33:33;;;;;;;17.45;9.55;;;16.60;99.90;;;;;;2096443;28;20108;-66
2021/07/03 02:34:33;;;;;;;18.67;9.25;;;16.60;99.90;;;;;;2092607;28;20024;-66
2021/07/03 02:35:34;;;;;;;14.75;9.43;;;16.60;99.90;;;;;;2095626;28;20436;-66
2021/07/03 02:36:35;;;;;;;14.00;9.23;;;16.60;99.90;;;;;;2095334;28;20224;-65
2021/07/03 02:37:36;;;;;;;15.48;9.35;;;16.60;99.90;;;;;;2096894;28;20033;-66
2021/07/03 02:38:38;;;;;;;12.95;8.85;;;16.60;99.90;;;;;;2096339;28;20722;-65
2021/07/03 02:39:39;;;;;;;12.50;9.10;;;16.50;99.90;;;;;;2094431;28;20025;-65
2021/07/03 02:40:39;;;;;;;13.38;9.77;;;16.60;99.90;;;;;;2095615;28;20061;-66
2021/07/03 02:41:40;;;;;;;15.95;8.82;;;16.60;99.90;;;;;;2088613;28;20024;-66
2021/07/03 02:42:41;;;;;;;18.60;9.82;;;16.60;99.90;;;;;;2088826;28;20025;-66
2021/07/03 02:43:41;;;;;;;15.68;9.50;;;16.60;99.90;;;;;;2090947;28;20059;-66
2021/07/03 02:44:42;;;;;;;14.90;9.18;;;16.60;99.90;;;;;;2097065;28;20551;-65
2021/07/03 02:45:43;;;;;;;13.82;8.77;;;16.60;99.90;;;;;;2096932;28;20074;-66
2021/07/03 02:46:44;;;;;;;14.30;9.15;;;16.60;99.90;;;;;;2097284;28;20020;-66
2021/07/03 02:47:45;;;;;;;15.27;8.50;;;16.60;99.90;;;;;;2096543;28;20035;-66
2021/07/03 02:48:46;;;;;;;13.50;9.55;;;16.60;99.90;;;;;;2088792;28;20366;-65
2021/07/03 02:49:46;;;;;;;13.45;8.73;;;16.60;99.90;;;;;;2087886;28;20100;-65
2021/07/03 02:50:47;;;;;;;16.15;8.60;;;16.60;99.90;;;;;;2092728;28;20051;-66
2021/07/03 02:51:48;;;;;;;19.30;8.82;;;16.60;99.90;;;;;;2097360;28;20103;-64
2021/07/03 02:52:49;;;;;;;11.18;8.73;;;16.60;99.90;;;;;;2096903;28;20677;-63
2021/07/03 02:53:50;;;;;;;15.15;8.88;;;16.70;99.90;;;;;;2095854;28;20039;-63
2021/07/03 02:54:50;;;;;;;22.05;9.45;;;16.70;99.90;;;;;;2096359;28;20120;-65
2021/07/03 02:55:51;;;;;;;16.48;9.77;;;16.70;99.90;;;;;;2096820;28;20032;-64
2021/07/03 02:56:57;;;;;;;29.40;10.65;;;16.60;99.90;;;;;;2097022;28;20361;-63
2021/07/03 02:57:58;;;;;;;21.73;11.48;;;16.60;99.90;;;;;;2095194;28;20108;-62
2021/07/03 02:58:58;;;;;;;19.13;10.63;;;16.60;99.90;;;;;;2090331;28;20514;-63
2021/07/03 02:59:59;;;;;;;19.73;11.20;;;16.50;99.90;;;;;;2088897;28;20029;-61
2021/07/03 03:01:00;;;;;;;16.13;10.55;;;16.50;99.90;;;;;;2093532;28;20577;-63
2021/07/03 03:02:01;;;;;;;18.05;11.07;;;16.50;99.90;;;;;;2097010;28;20127;-64
2021/07/03 03:03:01;;;;;;;18.92;11.73;;;16.50;99.90;;;;;;2096160;28;20082;-62
2021/07/03 03:04:02;;;;;;;18.63;11.43;;;16.50;99.90;;;;;;2095999;28;20021;-62
2021/07/03 03:05:08;;;;;;;16.92;10.73;;;16.50;99.90;;;;;;2097229;28;20767;-62
2021/07/03 03:06:11;;;;;;;17.35;10.88;;;16.40;99.90;;;;;;2094174;28;20021;-62
2021/07/03 03:07:12;;;;;;;19.58;12.40;;;16.40;99.90;;;;;;2091291;28;20017;-61
2021/07/03 03:08:13;;;;;;;18.75;11.70;;;16.40;99.90;;;;;;2091750;28;20473;-61
2021/07/03 03:09:15;;;;;;;22.00;12.77;;;16.40;99.90;;;;;;2091014;28;20051;-62
2021/07/03 03:10:16;;;;;;;;;;;16.30;99.90;;;;;;2097552;28;20021;-62
2021/07/03 03:11:17;;;;;;;19.55;10.95;;;16.30;99.90;;;;;;2096769;28;19911;-62
2021/07/03 03:12:18;;;;;;;20.23;10.95;;;16.30;99.90;;;;;;2097113;28;20048;-62
2021/07/03 03:13:19;;;;;;;21.15;11.38;;;16.30;99.90;;;;;;2095247;28;20017;-62
2021/07/03 03:14:19;;;;;;;18.83;10.73;;;16.30;99.90;;;;;;2093916;28;20025;-62
2021/07/03 03:15:20;;;;;;;22.30;11.38;;;16.30;99.90;;;;;;2097032;28;20029;-62
2021/07/03 03:16:21;;;;;;;22.63;11.60;;;16.20;99.90;;;;;;2104060;28;20028;-62
2021/07/03 03:17:21;;;;;;;26.15;12.23;;;16.20;99.90;;;;;;2104773;28;20375;-62
2021/07/03 03:18:22;;;;;;;22.38;12.02;;;16.20;99.90;;;;;;2104189;28;20041;-63
2021/07/03 03:19:23;;;;;;;23.23;13.15;;;16.30;99.90;;;;;;2104765;28;20100;-62
2021/07/03 03:20:23;;;;;;;18.58;11.10;;;16.30;99.90;;;;;;2104496;28;20102;-62
2021/07/03 03:21:24;;;;;;;20.27;11.82;;;16.20;99.90;;;;;;2101644;28;20074;-62
2021/07/03 03:22:25;;;;;;;19.83;12.10;;;16.20;99.90;;;;;;2096415;28;20033;-63
2021/07/03 03:23:25;;;;;;;18.67;11.93;;;16.20;99.90;;;;;;2092222;28;20104;-63
2021/07/03 03:24:26;;;;;;;23.92;12.57;;;16.20;99.90;;;;;;2087994;28;20020;-62
2021/07/03 03:25:27;;;;;;;21.08;12.27;;;16.20;99.90;;;;;;2095098;28;20125;-62
2021/07/03 03:26:27;;;;;;;19.38;12.93;;;16.20;99.90;;;;;;2093266;28;20536;-63
2021/07/03 03:27:28;;;;;;;19.75;12.93;;;16.20;99.90;;;;;;2092005;28;20427;-63
2021/07/03 03:28:29;;;;;;;20.90;13.25;;;16.20;99.90;;;;;;2091518;28;20025;-63
2021/07/03 03:29:29;;;;;;;22.23;12.52;;;16.20;99.90;;;;;;2104526;28;20031;-62
2021/07/03 03:30:30;;;;;;;20.00;12.65;;;16.20;99.90;;;;;;2096076;28;20111;-62
2021/07/03 03:31:31;;;;;;;22.95;12.30;;;16.20;99.90;;;;;;2096119;28;20028;-62
2021/07/03 03:32:32;;;;;;;21.08;13.07;;;16.20;99.90;;;;;;2096293;28;20163;-63
2021/07/03 03:33:33;;;;;;;25.70;13.05;;;16.20;99.90;;;;;;2092846;28;20033;-62
2021/07/03 03:34:33;;;;;;;19.95;12.38;;;16.20;99.90;;;;;;2088542;28;20112;-62
2021/07/03 03:35:34;;;;;;;21.65;12.45;;;16.10;99.90;;;;;;2095003;28;20020;-62
2021/07/03 03:36:35;;;;;;;24.67;13.30;;;16.20;99.90;;;;;;2096926;28;20472;-62
2021/07/03 03:37:36;;;;;;;31.58;13.38;;;16.20;99.90;;;;;;2096920;28;20075;-63
2021/07/03 03:38:36;;;;;;;22.38;12.52;;;16.20;99.90;;;;;;2096283;28;20103;-62
2021/07/03 03:39:37;;;;;;;20.05;13.02;;;16.20;99.90;;;;;;2096960;28;20031;-62
2021/07/03 03:40:39;;;;;;;21.35;12.48;;;16.20;99.90;;;;;;2095844;28;20028;-62
2021/07/03 03:41:40;;;;;;;21.85;13.00;;;16.20;99.90;;;;;;2093299;28;20020;-62
2021/07/03 03:42:41;;;;;;;21.42;13.35;;;16.10;99.90;;;;;;2094490;28;20031;-62
2021/07/03 03:43:42;;;;;;;26.85;13.65;;;16.10;99.90;;;;;;2091539;28;20021;-63
2021/07/03 03:44:43;;;;;;;19.70;12.82;;;16.10;99.90;;;;;;2096984;28;20548;-62
2021/07/03 03:45:44;;;;;;;23.83;13.43;;;16.10;99.90;;;;;;2091384;28;20079;-63
2021/07/03 03:46:45;;;;;;;18.10;12.77;;;16.10;99.90;;;;;;2089281;28;20020;-62
2021/07/03 03:47:46;;;;;;;22.15;12.05;;;16.10;99.90;;;;;;2096770;28;20020;-62
2021/07/03 03:48:46;;;;;;;19.23;10.88;;;16.10;99.90;;;;;;2096447;28;20498;-62
2021/07/03 03:49:47;;;;;;;20.40;11.90;;;16.10;99.90;;;;;;2097965;28;20044;-62
2021/07/03 03:50:48;;;;;;;20.05;10.85;;;16.10;99.90;;;;;;2094738;28;21041;-62
2021/07/03 03:51:49;;;;;;;19.25;10.75;;;16.10;99.90;;;;;;2091268;28;20183;-62
2021/07/03 03:52:50;;;;;;;17.48;10.32;;;16.10;99.90;;;;;;2095779;28;20028;-63
2021/07/03 03:53:51;;;;;;;16.60;10.63;;;16.10;99.90;;;;;;2090717;28;20021;-63
2021/07/03 03:54:51;;;;;;;15.65;9.57;;;16.10;99.90;;;;;;2090204;28;20507;-63
2021/07/03 03:55:52;;;;;;;17.73;9.82;;;16.00;99.90;;;;;;2095781;28;20074;-63
2021/07/03 03:58:12;;;;;;;15.63;9.05;;;16.00;99.90;;;;;;2093853;28;20032;-62
2021/07/03 03:59:13;;;;;;;12.55;7.80;;;15.90;99.90;;;;;;2097919;28;20021;-63
2021/07/03 04:00:14;;;;;;;13.35;6.80;;;15.90;99.90;;;;;;2097805;28;20082;-63
2021/07/03 04:01:15;;;;;;;13.43;7.28;;;15.90;99.90;;;;;;2094857;28;20041;-63
2021/07/03 04:02:16;;;;;;;14.98;6.45;;;15.80;99.90;;;;;;2105127;28;20126;-63
2021/07/03 04:03:17;;;;;;;15.40;6.30;;;15.80;99.90;;;;;;2105823;28;20091;-63
2021/07/03 04:04:18;;;;;;;15.63;6.47;;;15.80;99.90;;;;;;2098173;28;20020;-63
2021/07/03 04:05:19;;;;;;;18.17;7.00;;;15.70;99.90;;;;;;2098338;28;20031;-64
2021/07/03 04:06:19;;;;;;;13.48;6.57;;;15.70;99.90;;;;;;2098051;28;20052;-63
2021/07/03 04:07:21;;;;;;;13.77;6.78;;;15.70;99.90;;;;;;2097637;28;20368;-63
2021/07/03 04:08:22;;;;;;;11.63;5.75;;;15.70;99.90;;;;;;2095037;28;20017;-62
2021/07/03 04:09:22;;;;;;;11.60;5.80;;;15.70;99.90;;;;;;2093936;28;20028;-62
2021/07/03 04:10:23;;;;;;;15.27;6.03;;;15.70;99.90;;;;;;2094672;28;20025;-62
2021/07/03 04:11:24;;;;;;;10.95;5.43;;;15.60;99.90;;;;;;2097337;28;20017;-62
2021/07/03 04:12:24;;;;;;;13.38;5.85;;;15.60;99.90;;;;;;2097400;28;20028;-61
2021/07/03 04:13:25;;;;;;;9.85;4.60;;;15.60;99.90;;;;;;2105647;28;20449;-61
2021/07/03 04:14:26;;;;;;;13.57;4.90;;;15.50;99.90;;;;;;2105365;28;20103;-62
2021/07/03 04:15:26;;;;;;;7.70;4.97;;;15.50;99.90;;;;;;2095156;28;20029;-61
2021/07/03 04:16:27;;;;;;;10.20;4.63;;;15.50;99.90;;;;;;2091296;28;20040;-63
2021/07/03 04:17:28;;;;;;;5.38;4.30;;;15.50;99.90;;;;;;2090644;28;20024;-61
2021/07/03 04:18:28;;;;;;;9.27;4.78;;;15.50;99.90;;;;;;2102521;28;20035;-61
2021/07/03 04:19:29;;;;;;;8.98;4.50;;;15.50;99.90;;;;;;2099545;28;20616;-61
2021/07/03 04:20:30;;;;;;;8.05;4.72;;;15.50;99.90;;;;;;2097800;28;20518;-62
2021/07/03 04:21:31;;;;;;;15.15;5.18;;;15.50;99.90;;;;;;2095080;28;20051;-62
2021/07/03 04:22:32;;;;;;;12.20;4.57;;;15.50;99.90;;;;;;2097077;28;20025;-63
2021/07/03 04:23:33;;;;;;;8.55;4.55;;;15.50;99.90;;;;;;2097363;28;20412;-62
2021/07/03 04:24:34;;;;;;;8.70;4.47;;;15.40;99.90;;;;;;2097354;28;20031;-62
2021/07/03 04:25:35;;;;;;;9.10;3.90;;;15.40;99.90;;;;;;2096511;28;20023;-63
2021/07/03 04:26:36;;;;;;;8.50;4.20;;;15.40;99.90;;;;;;2097841;28;20024;-63
2021/07/03 04:27:37;;;;;;;8.88;4.90;;;15.40;99.90;;;;;;2093721;28;20020;-63
2021/07/03 04:28:37;;;;;;;7.60;4.43;;;15.40;99.90;;;;;;2093631;28;20106;-63
2021/07/03 04:29:38;;;;;;;5.93;4.18;;;15.40;99.90;;;;;;2097491;28;20028;-62
2021/07/03 04:30:39;;;;;;;7.55;4.55;;;15.40;99.90;;;;;;2105445;28;20039;-63
2021/07/03 04:31:40;;;;;;;9.13;4.50;;;15.40;99.90;;;;;;2097806;28;20028;-63
2021/07/03 04:32:41;;;;;;;6.38;4.38;;;15.40;99.90;;;;;;2096207;28;20025;-63
2021/07/03 04:33:41;;;;;;;10.63;4.65;;;15.40;99.90;;;;;;2094916;28;20081;-63
2021/07/03 04:34:42;;;;;;;7.07;4.18;;;15.40;99.90;;;;;;2098099;28;20544;-62
2021/07/03 04:35:43;;;;;;;11.88;4.30;;;15.40;99.90;;;;;;2097716;28;20540;-63
2021/07/03 04:36:44;;;;;;;10.05;4.40;;;15.40;99.90;;;;;;2096789;28;20016;-62
2021/07/03 04:37:45;;;;;;;6.35;4.32;;;15.40;99.90;;;;;;2089869;28;20025;-62
2021/07/03 04:38:45;;;;;;;6.63;4.10;;;15.40;99.90;;;;;;2094292;28;20028;-62
2021/07/03 04:39:46;;;;;;;10.00;4.72;;;15.40;99.90;;;;;;2098295;28;20016;-63
2021/07/03 04:40:47;;;;;;;8.50;4.35;;;15.40;99.90;;;;;;2091877;28;20021;-62
2021/07/03 04:41:47;;;;;;;6.78;4.20;;;15.40;99.90;;;;;;2090594;28;20466;-62
2021/07/03 04:42:48;;;;;;;5.70;4.00;;;15.40;99.90;;;;;;2094463;28;20589;-62
2021/07/03 04:43:48;;;;;;;7.72;4.15;;;15.40;99.90;;;;;;2090490;28;20021;-62
2021/07/03 04:44:49;;;;;;;6.90;3.95;;;15.40;99.90;;;;;;2089774;28;20021;-62
2021/07/03 04:45:50;;;;;;;5.22;3.78;;;15.40;99.90;;;;;;2096515;28;20084;-63
2021/07/03 04:46:51;;;;;;;6.47;3.92;;;15.40;99.90;;;;;;2093902;28;20502;-62
2021/07/03 04:47:52;;;;;;;6.50;3.90;;;15.40;99.90;;;;;;2096769;28;20032;-62
2021/07/03 04:48:53;;;;;;;4.70;3.80;;;15.40;99.90;;;;;;2096877;28;20025;-62
2021/07/03 04:49:54;;;;;;;5.88;3.33;;;15.40;99.90;;;;;;2089025;28;20071;-62
2021/07/03 04:50:54;;;;;;;8.52;3.63;;;15.40;99.90;;;;;;2088466;28;20640;-62
2021/07/03 04:51:55;;;;;;;4.20;3.70;;;15.40;99.90;;;;;;2097182;28;20511;-62
2021/07/03 04:52:56;;;;;;;7.68;4.13;;;15.40;99.90;;;;;;2087590;28;20075;-62
2021/07/03 04:53:56;;;;;;;7.82;3.75;;;15.40;99.90;;;;;;2092492;28;20119;-62
2021/07/03 04:54:58;;;;;;;7.07;3.70;;;15.40;99.90;;;;;;2094848;28;20039;-62
2021/07/03 04:55:59;;;;;;;7.20;4.53;;;15.40;99.90;;;;;;2095083;28;20048;-62
2021/07/03 04:57:09;;;;;;;7.88;4.05;;;15.40;99.90;;;;;;2097781;28;20027;-62
2021/07/03 04:58:09;;;;;;;6.35;4.38;;;15.40;99.90;;;;;;2098072;28;20710;-62
2021/07/03 04:59:10;;;;;;;8.00;4.63;;;15.40;99.90;;;;;;2097503;28;20028;-62
2021/07/03 05:00:12;;;;;;;6.55;4.40;;;15.50;99.90;;;;;;2095041;28;20040;-62
2021/07/03 05:01:13;;;;;;;8.90;4.70;;;15.50;99.90;;;;;;2091347;28;20024;-62
2021/07/03 05:02:14;;;;;;;10.55;4.50;;;15.50;99.90;;;;;;2090286;28;20576;-62
2021/07/03 05:03:14;;;;;;;6.63;4.50;;;15.50;99.90;;;;;;2089708;28;20019;-62
2021/07/03 05:04:15;;;;;;;7.25;4.65;;;15.50;99.90;;;;;;2091125;28;20877;-62
2021/07/03 05:05:16;;;;;;;6.15;4.88;;;15.50;99.90;;;;;;2093739;28;20070;-62
2021/07/03 05:06:17;;;;;;;7.82;4.80;;;15.50;99.90;;;;;;2097704;28;20017;-62
2021/07/03 05:07:18;;;;;;;9.20;5.15;;;15.60;99.90;;;;;;2098753;28;20554;-62
2021/07/03 05:08:19;;;;;;;7.05;5.10;;;15.50;99.90;;;;;;2098016;28;20025;-62
2021/07/03 05:09:19;;;;;;;8.48;5.55;;;15.50;99.90;;;;;;2094731;28;20033;-62
2021/07/03 05:10:20;;;;;;;7.95;5.22;;;15.50;99.90;;;;;;2097302;28;20092;-62
2021/07/03 05:11:21;;;;;;;9.63;6.18;;;15.50;99.90;;;;;;2097134;28;20103;-62
2021/07/03 05:12:21;;;;;;;8.73;6.03;;;15.50;99.90;;;;;;2097589;28;20534;-61
2021/07/03 05:13:22;;;;;;;10.93;6.57;;;15.60;99.90;;;;;;2097846;28;20020;-61
2021/07/03 05:14:23;;;;;;;8.85;6.47;;;15.60;99.90;;;;;;2096830;28;20036;-62